Startpagina
METAR-TAF:

METAR-TAF

Vliegvelden :

Luchthaven Larnaca

Larnaca, Cyprus

breedte: 34-53N, lengte: 033-38E, hoogte: 2 m

Actueel weer

Dit bericht is 5 minuten geleden gemaakt, om 15:30 UTC
Wind 13 kt uit het zuidwesten
Temperatuur 32°C
Vochtigheid 67%
Druk 1007 hPa
Zicht 10 km of meer
Weinig wolken op 2500 ft

METAR: LCLK 251530Z 22013KT 9999 FEW025 32/25 Q1007 NOSIG

Tijdstip: 18:35 (15:35 UTC)

Verwachting

Dit bericht is 4 uur en het 5 minuten geleden gemaakt, om 11:30 UTC
Verwachting geldig van 25 om 12 UTC tot 26 om 12 UTC
Wind 17 kt uit het zuidzuidwesten
Zicht 10 km of meer
Weinig wolken op 3000 ft
Wijzigt naar
van 25 om 17 UTC tot 25 om 19 UTC
Wind 6 kt uit het noordwesten
Kans 30% :
Tijdelijke
van 25 om 22 UTC tot 26 om 05 UTC
Zicht: 5000 m
Gebroken wolken op 500 ft
nevel
Wijzigt naar
van 26 om 09 UTC tot 26 om 12 UTC
Wind 16 kt uit het zuidzuidwesten

TAF: LCLK 251130Z 2512/2612 21017KT 9999 FEW030 BECMG 2517/2519 31006KT PROB30 TEMPO 2522/2605 5000 BR BKN005 BECMG 2609/2612 21016KT

Waarnemingen en weersverwachtingen van meer dan 4000 vliegvelden (METAR en TAF).

De beschikbare stations zijn de gele en rode punten op de kaart.

Ga met uw muis naar het station om de naam te zien.

Klik dan om waarnemingen en weersverwachtingen te zien.

kaart wijzigen: klik op de groene knoppen met een zwart kruis om in te zoomen, op de groene knop met een streepje om uit te zoomen of op de groene pijlen voor aangrenzende kaarten.


METAR-TAF: